Time;durP1;ratioP1;P1;durP2;ratioP2;P2;SDS_P1;SDS_P2;PMS_P1;PMS_P2;Temp;Humidity;BMP_temperature;BMP_pressure;BME280_temperature;BME280_humidity;BME280_pressure;Samples;Min_cycle;Max_cycle;Signal;HPM_P1;HPM_P2
2022/01/09 00:04:31;;;;;;;99.85;80.90;;;20.20;43.60;;;;;;4796424;55;21018;-33
2022/01/09 00:09:32;;;;;;;106.47;85.90;;;20.20;43.60;;;;;;4737085;56;21117;-35
2022/01/09 00:14:33;;;;;;;95.10;77.37;;;20.20;43.60;;;;;;4805171;55;20994;-36
2022/01/09 00:19:33;;;;;;;97.45;78.28;;;20.20;43.60;;;;;;4748967;55;21061;-34
2022/01/09 00:24:34;;;;;;;103.47;82.20;;;20.30;43.60;;;;;;4763370;55;22250;-36
2022/01/09 00:29:35;;;;;;;99.87;80.80;;;20.20;43.40;;;;;;4774698;55;21006;-34
2022/01/09 00:34:36;;;;;;;92.90;75.80;;;20.20;43.50;;;;;;4750046;55;21105;-37
2022/01/09 00:39:37;;;;;;;98.68;80.05;;;20.20;43.40;;;;;;4739196;55;21062;-36
2022/01/09 00:44:38;;;;;;;99.68;80.53;;;20.20;43.40;;;;;;4737919;59;21056;-36
2022/01/09 00:49:38;;;;;;;101.40;80.90;;;20.20;43.40;;;;;;4752263;55;21452;-35
2022/01/09 00:54:39;;;;;;;96.28;77.87;;;20.20;43.40;;;;;;4767701;55;21069;-35
2022/01/09 00:59:40;;;;;;;95.97;76.70;;;20.20;43.30;;;;;;4753105;55;20998;-36
2022/01/09 01:04:42;;;;;;;95.47;78.32;;;20.20;43.50;;;;;;4773789;55;21488;-36
2022/01/09 01:09:43;;;;;;;98.80;79.35;;;20.20;43.30;;;;;;4777461;55;21658;-38
2022/01/09 01:14:44;;;;;;;89.10;73.65;;;20.20;43.30;;;;;;4750768;55;21030;-35
2022/01/09 01:19:45;;;;;;;89.80;73.40;;;20.20;43.40;;;;;;4748258;55;21034;-33
2022/01/09 01:24:47;;;;;;;95.00;75.22;;;20.20;43.30;;;;;;4796177;55;21567;-34
2022/01/09 01:29:48;;;;;;;94.03;76.45;;;20.20;43.20;;;;;;4738986;55;21500;-37
2022/01/09 01:34:49;;;;;;;89.97;70.18;;;20.20;43.30;;;;;;4777383;55;21034;-35
2022/01/09 01:39:51;;;;;;;90.55;71.47;;;20.20;43.40;;;;;;4797337;55;21400;-35
2022/01/09 01:44:52;;;;;;;90.30;74.22;;;20.20;43.10;;;;;;4753705;55;21475;-35
2022/01/09 01:49:53;;;;;;;85.20;68.07;;;20.20;43.20;;;;;;4742338;55;21125;-34
2022/01/09 01:54:54;;;;;;;92.95;72.30;;;20.20;43.20;;;;;;4738347;56;21520;-33
2022/01/09 01:59:55;;;;;;;85.00;67.82;;;20.20;43.10;;;;;;4749701;55;21014;-28
2022/01/09 02:04:56;;;;;;;85.57;68.80;;;20.20;43.10;;;;;;4760374;55;21001;-34
2022/01/09 02:09:57;;;;;;;91.00;71.28;;;20.20;43.10;;;;;;4749376;55;21568;-35
2022/01/09 02:14:58;;;;;;;85.80;68.00;;;20.20;43.10;;;;;;4738614;55;21093;-37
2022/01/09 02:19:59;;;;;;;89.70;71.47;;;20.20;43.30;;;;;;4746087;55;21010;-34
2022/01/09 02:25:00;;;;;;;86.72;69.65;;;20.20;43.00;;;;;;4762237;55;21026;-36
2022/01/09 02:30:01;;;;;;;83.82;68.15;;;20.20;43.00;;;;;;4751257;55;21529;-36
2022/01/09 02:35:02;;;;;;;87.60;68.75;;;20.20;43.10;;;;;;4780975;55;21010;-33
2022/01/09 02:40:05;;;;;;;83.32;67.45;;;20.20;43.00;;;;;;4738121;59;21050;-35
2022/01/09 02:45:07;;;;;;;84.30;67.22;;;20.20;43.00;;;;;;4742969;55;21029;-36
2022/01/09 02:50:17;;;;;;;85.35;67.78;;;20.20;42.90;;;;;;4737052;59;21010;-29
2022/01/09 02:55:19;;;;;;;86.28;68.35;;;20.20;42.80;;;;;;4755201;55;21021;-32
2022/01/09 03:00:22;;;;;;;80.68;64.07;;;20.20;42.80;;;;;;4737957;59;21005;-35
2022/01/09 03:05:24;;;;;;;82.97;66.25;;;20.20;42.90;;;;;;4760412;55;21034;-34
2022/01/09 03:10:25;;;;;;;83.30;67.97;;;20.20;42.80;;;;;;4742931;55;21069;-36
2022/01/09 03:15:26;;;;;;;82.30;63.95;;;20.20;42.80;;;;;;4780184;55;21014;-33
2022/01/09 03:20:28;;;;;;;79.57;64.72;;;20.20;43.40;;;;;;4737786;59;21110;-36
2022/01/09 03:25:30;;;;;;;79.25;61.75;;;20.20;42.70;;;;;;4738037;55;21025;-38
2022/01/09 03:30:31;;;;;;;84.20;66.12;;;20.20;42.80;;;;;;4743129;55;21026;-36
2022/01/09 03:35:32;;;;;;;79.20;61.05;;;20.20;42.60;;;;;;4737724;59;21555;-33
2022/01/09 03:40:33;;;;;;;80.53;63.70;;;20.20;42.70;;;;;;4737333;59;20997;-33
2022/01/09 03:45:34;;;;;;;76.50;59.97;;;20.20;42.60;;;;;;4752330;55;21547;-35
2022/01/09 03:50:35;;;;;;;76.82;61.00;;;20.10;42.50;;;;;;4751973;55;21117;-32
2022/01/09 03:55:36;;;;;;;74.18;58.38;;;20.20;42.60;;;;;;4738948;59;21487;-35
2022/01/09 04:00:37;;;;;;;77.28;61.22;;;20.20;42.60;;;;;;4751485;55;20986;-35
2022/01/09 04:05:38;;;;;;;75.15;60.40;;;20.20;43.00;;;;;;4788712;55;21912;-33
2022/01/09 04:10:42;;;;;;;75.37;60.33;;;20.20;42.60;;;;;;4751481;55;21112;-35
2022/01/09 04:15:47;;;;;;;71.85;57.95;;;20.20;42.50;;;;;;4770654;55;21108;-36
2022/01/09 04:20:50;;;;;;;70.28;56.67;;;20.10;42.40;;;;;;4807773;55;21588;-35
2022/01/09 04:25:51;;;;;;;77.60;59.83;;;20.10;42.50;;;;;;4737769;59;21021;-33
2022/01/09 04:30:52;;;;;;;70.60;57.78;;;20.10;42.50;;;;;;4769232;55;21124;-32
2022/01/09 04:35:53;;;;;;;72.68;57.92;;;20.10;42.30;;;;;;4751730;55;21121;-36
2022/01/09 04:40:54;;;;;;;76.30;59.63;;;20.20;42.40;;;;;;4790625;55;21009;-34
2022/01/09 04:45:55;;;;;;;70.62;54.72;;;20.10;42.20;;;;;;4761083;55;21069;-36
2022/01/09 04:50:58;;;;;;;69.03;56.17;;;20.10;42.30;;;;;;4739324;55;21002;-37
2022/01/09 04:55:58;;;;;;;70.18;55.38;;;20.10;42.20;;;;;;4738473;55;21533;-30
2022/01/09 05:00:59;;;;;;;69.03;56.83;;;20.20;42.30;;;;;;4787990;55;21041;-35
2022/01/09 05:06:00;;;;;;;69.28;53.92;;;20.10;42.30;;;;;;4738134;59;21037;-37
2022/01/09 05:11:01;;;;;;;69.40;56.05;;;20.20;42.20;;;;;;4770316;55;21034;-36
2022/01/09 05:16:02;;;;;;;65.53;52.42;;;20.10;42.20;;;;;;4737588;59;21034;-32
2022/01/09 05:21:03;;;;;;;70.43;55.80;;;20.10;42.10;;;;;;4761026;55;20998;-27
2022/01/09 05:26:04;;;;;;;70.10;55.12;;;20.10;42.10;;;;;;4771514;55;20990;-34
2022/01/09 05:31:04;;;;;;;67.55;53.60;;;20.10;42.10;;;;;;4763143;55;20982;-33
2022/01/09 05:36:05;;;;;;;63.55;50.83;;;20.10;42.70;;;;;;4753625;55;21092;-32
2022/01/09 05:41:06;;;;;;;66.05;55.03;;;20.10;42.10;;;;;;4761870;55;21026;-32
2022/01/09 05:46:07;;;;;;;67.07;54.13;;;20.10;42.00;;;;;;4737751;55;21567;-30
2022/01/09 05:51:08;;;;;;;68.35;54.42;;;20.10;42.10;;;;;;4762093;55;21390;-34
2022/01/09 05:56:11;;;;;;;64.25;53.08;;;20.10;41.90;;;;;;4737966;59;21035;-33
2022/01/09 06:01:12;;;;;;;60.85;50.15;;;20.20;42.00;;;;;;4759964;55;21102;-35
2022/01/09 06:06:13;;;;;;;62.95;50.20;;;20.10;41.90;;;;;;4800339;55;21536;-34
2022/01/09 06:11:14;;;;;;;65.95;51.28;;;20.10;41.90;;;;;;4750591;55;21098;-36
2022/01/09 06:16:15;;;;;;;64.50;51.58;;;20.10;41.90;;;;;;4760579;55;21517;-31
2022/01/09 06:21:15;;;;;;;61.10;48.97;;;20.10;41.80;;;;;;4737901;59;21073;-34
2022/01/09 06:26:16;;;;;;;63.75;50.88;;;20.10;41.90;;;;;;4760777;55;21022;-34
2022/01/09 06:31:20;;;;;;;60.33;50.10;;;20.10;41.90;;;;;;4753627;55;21002;-34
2022/01/09 06:36:21;;;;;;;61.22;50.22;;;20.10;41.80;;;;;;4764054;55;21041;-35
2022/01/09 06:41:21;;;;;;;59.45;48.72;;;20.10;41.80;;;;;;4774140;55;21010;-32
2022/01/09 06:46:22;;;;;;;59.90;48.35;;;20.10;41.80;;;;;;4753545;55;21001;-34
2022/01/09 06:51:23;;;;;;;58.72;46.92;;;20.10;41.80;;;;;;4783752;55;21065;-35
2022/01/09 06:56:24;;;;;;;57.83;46.72;;;20.10;41.80;;;;;;4750807;55;21062;-33
2022/01/09 07:01:25;;;;;;;61.13;48.95;;;20.10;41.80;;;;;;4765110;55;21013;-29
2022/01/09 07:06:26;;;;;;;59.13;47.05;;;20.10;41.80;;;;;;4763110;55;21066;-34
2022/01/09 07:11:27;;;;;;;61.45;50.10;;;20.20;41.80;;;;;;4750938;55;21022;-31
2022/01/09 07:16:28;;;;;;;62.30;49.17;;;20.10;41.70;;;;;;4760483;55;21037;-33
2022/01/09 07:21:29;;;;;;;58.08;47.17;;;20.10;41.80;;;;;;4761057;55;21556;-33
2022/01/09 07:26:30;;;;;;;57.38;47.72;;;20.10;41.70;;;;;;4753344;55;21058;-34
2022/01/09 07:31:31;;;;;;;57.13;47.70;;;20.10;41.80;;;;;;4739020;59;21492;-33
2022/01/09 07:36:32;;;;;;;57.62;46.55;;;20.10;41.70;;;;;;4774550;55;21089;-29
2022/01/09 07:41:33;;;;;;;57.28;46.97;;;20.10;41.60;;;;;;4737024;59;21611;-30
2022/01/09 07:46:35;;;;;;;62.13;49.90;;;20.10;41.60;;;;;;4781166;55;21065;-30
2022/01/09 07:51:36;;;;;;;60.88;49.05;;;20.10;41.60;;;;;;4746954;55;21057;-35
2022/01/09 07:56:37;;;;;;;58.03;45.22;;;20.10;41.70;;;;;;4784900;55;20998;-33
2022/01/09 08:01:39;;;;;;;60.58;49.33;;;20.10;41.80;;;;;;4737964;55;21177;-32
2022/01/09 08:06:40;;;;;;;62.10;48.38;;;20.10;41.60;;;;;;4737910;59;21485;-31
2022/01/09 08:11:41;;;;;;;60.67;49.38;;;20.10;41.70;;;;;;4737726;59;21034;-34
2022/01/09 08:16:41;;;;;;;58.33;47.95;;;20.10;41.60;;;;;;4738049;57;21010;-35
2022/01/09 08:21:42;;;;;;;58.63;46.92;;;20.10;41.60;;;;;;4753920;55;21113;-33
2022/01/09 08:26:43;;;;;;;61.92;50.20;;;20.10;41.60;;;;;;4737912;59;21544;-34
2022/01/09 08:31:44;;;;;;;61.45;49.70;;;20.10;41.60;;;;;;4738168;59;21005;-29
2022/01/09 08:36:45;;;;;;;60.58;50.72;;;20.10;41.60;;;;;;4759924;55;21053;-33
2022/01/09 08:41:46;;;;;;;64.07;51.70;;;20.10;41.50;;;;;;4737921;59;20994;-36
2022/01/09 08:46:48;;;;;;;64.00;51.13;;;20.10;41.60;;;;;;4749911;55;21461;-34
2022/01/09 08:51:49;;;;;;;63.47;51.85;;;20.10;41.50;;;;;;4762033;55;21116;-31
2022/01/09 08:56:50;;;;;;;62.62;50.30;;;20.10;41.60;;;;;;4750214;55;21531;-33
2022/01/09 09:01:51;;;;;;;62.83;50.85;;;20.10;41.50;;;;;;4742525;55;21026;-28
2022/01/09 09:06:53;;;;;;;63.67;50.58;;;20.10;41.50;;;;;;4737524;59;21567;-34
2022/01/09 09:11:54;;;;;;;67.78;54.15;;;20.10;41.50;;;;;;4737192;59;21567;-31
2022/01/09 09:16:55;;;;;;;62.90;51.80;;;20.10;41.50;;;;;;4755086;55;21065;-31
2022/01/09 09:21:55;;;;;;;62.92;50.72;;;20.10;41.50;;;;;;4738033;59;21014;-30
2022/01/09 09:26:56;;;;;;;67.78;54.03;;;20.10;41.50;;;;;;4737289;59;21539;-32
2022/01/09 09:31:57;;;;;;;69.75;55.70;;;20.10;41.60;;;;;;4738572;59;21014;-33
2022/01/09 09:36:58;;;;;;;68.20;55.15;;;20.10;41.50;;;;;;4759540;55;21076;-30
2022/01/09 09:42:00;;;;;;;68.80;55.78;;;20.10;41.50;;;;;;4772790;55;21057;-32
2022/01/09 09:47:03;;;;;;;71.75;57.45;;;20.10;41.50;;;;;;4740640;55;21093;-33
2022/01/09 09:52:06;;;;;;;72.07;57.83;;;20.20;41.60;;;;;;4757358;55;21070;-34
2022/01/09 09:57:07;;;;;;;75.25;58.42;;;20.10;41.50;;;;;;4737873;59;21935;-34
2022/01/09 10:02:09;;;;;;;76.12;59.95;;;20.10;41.60;;;;;;4762872;55;21018;-36
2022/01/09 10:07:23;;;;;;;73.62;59.35;;;20.10;41.60;;;;;;4737871;59;21591;-36
2022/01/09 10:12:29;;;;;;;76.87;59.85;;;20.10;41.60;;;;;;4757904;55;21571;-29
2022/01/09 10:17:31;;;;;;;77.87;61.28;;;20.20;41.70;;;;;;4783702;55;21078;-36
2022/01/09 10:23:00;;;;;;;77.10;61.03;;;20.20;41.70;;;;;;4749880;55;21496;-33
2022/01/09 10:28:20;;;;;;;78.03;62.10;;;20.20;41.70;;;;;;4739669;55;21058;-35
2022/01/09 10:33:26;;;;;;;82.18;64.95;;;20.20;41.70;;;;;;4797286;55;21516;-30
2022/01/09 10:38:29;;;;;;;85.82;68.32;;;20.30;41.80;;;;;;4767742;55;21041;-35
2022/01/09 10:43:39;;;;;;;86.68;66.82;;;20.20;41.80;;;;;;4737627;59;21034;-35
2022/01/09 10:48:44;;;;;;;85.65;68.25;;;20.20;41.80;;;;;;4750117;55;21207;-38
2022/01/09 10:53:45;;;;;;;85.60;66.72;;;20.20;41.80;;;;;;4746538;55;21385;-33
2022/01/09 10:58:57;;;;;;;87.32;68.18;;;20.20;41.90;;;;;;4754314;55;21058;-35
2022/01/09 11:04:08;;;;;;;87.70;69.70;;;20.20;42.00;;;;;;4752995;55;21488;-35
2022/01/09 11:09:10;;;;;;;90.10;70.95;;;20.20;41.90;;;;;;4737110;59;21041;-34
2022/01/09 11:14:16;;;;;;;91.50;71.80;;;20.20;42.00;;;;;;4743092;55;21089;-34
2022/01/09 11:19:23;;;;;;;90.43;72.60;;;20.20;42.00;;;;;;4746270;55;21625;-34
2022/01/09 11:28:41;;;;;;;95.97;75.47;;;20.20;42.00;;;;;;4743951;55;21107;-36
2022/01/09 11:37:29;;;;;;;93.47;74.30;;;20.20;42.10;;;;;;4738018;59;21082;-37
2022/01/09 11:42:30;;;;;;;95.60;73.72;;;20.20;42.10;;;;;;4747082;55;21539;-31
2022/01/09 11:47:48;;;;;;;95.12;76.18;;;20.20;42.10;;;;;;4758755;55;20990;-33
2022/01/09 11:53:00;;;;;;;92.72;72.62;;;20.20;42.20;;;;;;4776613;55;21555;-33
2022/01/09 11:58:03;;;;;;;99.70;79.07;;;20.20;42.20;;;;;;4756633;55;20986;-35
2022/01/09 12:03:41;;;;;;;98.43;79.05;;;20.20;42.20;;;;;;4760262;55;21476;-34
2022/01/09 12:10:35;;;;;;;;;;;20.20;42.30;;;;;;4764892;55;21484;-34
2022/01/09 12:15:39;;;;;;;103.25;79.32;;;20.20;42.30;;;;;;4778275;55;20334;-36
2022/01/09 12:20:40;;;;;;;106.37;82.00;;;20.20;42.30;;;;;;4737651;59;21086;-35
2022/01/09 12:25:42;;;;;;;103.30;80.93;;;20.20;42.40;;;;;;4742206;55;21002;-36
2022/01/09 12:30:58;;;;;;;104.63;84.03;;;20.20;42.40;;;;;;4749455;55;21073;-36
2022/01/09 12:36:08;;;;;;;104.95;84.20;;;20.20;42.50;;;;;;4768775;55;21018;-36
2022/01/09 12:41:15;;;;;;;104.22;83.55;;;20.20;42.50;;;;;;4771390;55;21096;-33
2022/01/09 12:46:19;;;;;;;109.72;85.87;;;20.20;42.50;;;;;;4741669;55;21125;-34
2022/01/09 12:51:21;;;;;;;111.20;87.18;;;20.20;42.50;;;;;;4751384;55;21613;-36
2022/01/09 12:56:28;;;;;;;110.35;89.78;;;20.20;42.50;;;;;;4738901;55;21029;-35
2022/01/09 13:01:31;;;;;;;112.00;88.97;;;20.20;42.60;;;;;;4780926;55;21042;-36
2022/01/09 13:06:34;;;;;;;112.68;89.87;;;20.20;42.60;;;;;;4738002;59;21527;-37
2022/01/09 13:11:35;;;;;;;113.70;90.30;;;20.20;42.60;;;;;;4738877;55;21085;-36
2022/01/09 13:16:36;;;;;;;115.80;91.80;;;20.20;42.60;;;;;;4738909;59;20998;-37
2022/01/09 13:21:43;;;;;;;109.63;90.78;;;20.20;42.70;;;;;;4749272;55;21006;-34
2022/01/09 13:26:56;;;;;;;111.33;89.33;;;20.20;42.60;;;;;;4773438;55;21480;-32
2022/01/09 13:32:05;;;;;;;119.00;94.70;;;20.20;42.70;;;;;;4746820;55;21500;-35
2022/01/09 13:37:12;;;;;;;110.93;88.97;;;20.20;42.70;;;;;;4751492;55;21453;-32
2022/01/09 13:42:20;;;;;;;120.10;96.87;;;20.20;42.70;;;;;;4760203;55;21126;-33
2022/01/09 13:47:21;;;;;;;118.18;93.72;;;20.20;42.70;;;;;;4810383;55;21013;-36
2022/01/09 13:52:27;;;;;;;114.80;92.37;;;20.20;42.70;;;;;;4737954;57;21544;-36
2022/01/09 13:57:29;;;;;;;113.75;92.05;;;20.20;42.70;;;;;;4738342;55;21060;-34
2022/01/09 14:02:49;;;;;;;112.47;90.12;;;20.20;42.70;;;;;;4781060;55;22105;-34
2022/01/09 14:07:58;;;;;;;119.70;94.82;;;20.20;42.70;;;;;;4737433;55;21492;-34
2022/01/09 14:12:59;;;;;;;120.47;93.90;;;20.20;42.80;;;;;;4757453;55;20993;-36
2022/01/09 14:17:59;;;;;;;119.15;96.10;;;20.20;42.70;;;;;;4762881;55;21661;-36
2022/01/09 14:23:10;;;;;;;118.95;94.60;;;20.20;42.70;;;;;;4739400;55;21520;-35
2022/01/09 14:28:14;;;;;;;117.68;94.50;;;20.20;42.70;;;;;;4748982;55;21090;-35
2022/01/09 14:33:18;;;;;;;120.37;96.43;;;20.20;42.80;;;;;;4745840;55;20986;-33
2022/01/09 14:38:30;;;;;;;122.85;96.30;;;20.20;42.80;;;;;;4755845;55;21058;-36
2022/01/09 14:43:34;;;;;;;114.90;91.30;;;20.20;42.80;;;;;;4748758;55;20994;-34
2022/01/09 14:48:39;;;;;;;122.15;95.85;;;20.20;42.80;;;;;;4764438;55;21046;-33
2022/01/09 14:53:42;;;;;;;119.68;96.82;;;20.20;42.80;;;;;;4752376;55;20986;-32
2022/01/09 14:58:43;;;;;;;120.57;95.75;;;20.20;42.80;;;;;;4751997;55;21475;-34
2022/01/09 15:03:44;;;;;;;119.75;95.70;;;20.20;42.80;;;;;;4746876;55;21067;-31
2022/01/09 15:08:45;;;;;;;120.22;96.20;;;20.20;42.80;;;;;;4743048;55;21026;-34
2022/01/09 15:13:48;;;;;;;122.72;96.22;;;20.20;42.80;;;;;;4760887;55;21054;-32
2022/01/09 15:18:49;;;;;;;116.88;91.47;;;20.20;42.80;;;;;;4783691;55;21085;-31
2022/01/09 15:23:51;;;;;;;115.22;90.05;;;20.20;42.80;;;;;;4773672;55;21592;-34
2022/01/09 15:28:52;;;;;;;119.05;95.57;;;20.20;42.90;;;;;;4756586;55;21996;-34
2022/01/09 15:33:53;;;;;;;115.60;91.57;;;20.20;42.80;;;;;;4750210;55;21089;-35
2022/01/09 15:38:54;;;;;;;120.32;95.97;;;20.20;42.90;;;;;;4740349;55;21504;-37
2022/01/09 15:43:56;;;;;;;121.78;97.78;;;20.20;42.80;;;;;;4758023;55;21081;-39
2022/01/09 15:48:57;;;;;;;121.00;96.30;;;20.20;42.80;;;;;;4740493;55;22002;-34
2022/01/09 15:53:58;;;;;;;120.18;98.60;;;20.20;43.40;;;;;;4754406;55;21107;-29
2022/01/09 15:58:59;;;;;;;120.68;97.53;;;20.20;42.90;;;;;;4755384;55;21408;-34
2022/01/09 16:03:59;;;;;;;122.65;98.32;;;20.20;42.90;;;;;;4783112;55;22284;-34
2022/01/09 16:09:05;;;;;;;120.32;96.63;;;20.10;42.80;;;;;;4744341;55;21017;-30
2022/01/09 16:14:07;;;;;;;120.50;96.32;;;20.10;42.80;;;;;;4774976;55;21524;-35
2022/01/09 16:19:08;;;;;;;122.37;96.85;;;20.10;42.70;;;;;;4737640;59;21014;-30
2022/01/09 16:24:09;;;;;;;117.47;97.32;;;20.10;43.40;;;;;;4807606;55;21595;-37
2022/01/09 16:29:14;;;;;;;120.28;98.22;;;20.10;42.70;;;;;;4752731;55;21181;-36
2022/01/09 16:34:15;;;;;;;119.15;97.18;;;20.10;42.70;;;;;;4738870;55;21025;-33
2022/01/09 16:39:16;;;;;;;123.55;98.68;;;20.10;42.80;;;;;;4739476;55;21030;-34
2022/01/09 16:44:17;;;;;;;125.65;101.72;;;20.10;42.80;;;;;;4743858;55;20999;-32
2022/01/09 16:49:17;;;;;;;123.43;99.40;;;20.10;42.80;;;;;;4763898;55;21086;-32
2022/01/09 16:54:18;;;;;;;123.15;100.35;;;20.10;42.80;;;;;;4739224;55;21093;-34
2022/01/09 16:59:19;;;;;;;120.93;99.05;;;20.10;42.70;;;;;;4740431;55;21555;-35
2022/01/09 17:04:20;;;;;;;123.32;99.25;;;20.10;42.70;;;;;;4740791;55;21524;-36
2022/01/09 17:09:21;;;;;;;130.95;102.47;;;20.10;42.70;;;;;;4776849;55;21070;-37
2022/01/09 17:14:23;;;;;;;129.70;102.65;;;20.10;42.60;;;;;;4853493;55;21058;-36
2022/01/09 17:19:24;;;;;;;123.97;100.82;;;20.10;42.70;;;;;;4765894;55;21456;-36
2022/01/09 17:24:24;;;;;;;124.03;97.88;;;20.10;42.70;;;;;;4743944;55;21026;-35
2022/01/09 17:29:25;;;;;;;122.93;98.05;;;20.10;42.60;;;;;;4765131;55;21531;-36
2022/01/09 17:34:26;;;;;;;122.60;98.28;;;20.10;43.20;;;;;;4742339;55;21005;-32
2022/01/09 17:39:27;;;;;;;123.30;100.65;;;20.10;42.60;;;;;;4766802;55;21100;-35
2022/01/09 17:44:28;;;;;;;128.00;102.78;;;20.10;42.60;;;;;;4776553;55;21512;-35
2022/01/09 17:49:31;;;;;;;124.90;99.03;;;20.10;42.60;;;;;;4738756;55;21049;-35
2022/01/09 17:54:32;;;;;;;129.02;103.05;;;20.10;42.60;;;;;;4738914;55;21528;-34
2022/01/09 17:59:33;;;;;;;120.50;96.78;;;20.10;42.60;;;;;;4774273;55;21492;-35
2022/01/09 18:04:33;;;;;;;129.60;103.50;;;20.10;42.60;;;;;;4740058;55;21014;-36
2022/01/09 18:09:34;;;;;;;125.22;99.85;;;20.10;42.60;;;;;;4761365;55;21536;-29
2022/01/09 18:14:35;;;;;;;127.62;99.05;;;20.10;42.60;;;;;;4741308;55;21050;-34
2022/01/09 18:19:36;;;;;;;124.12;98.80;;;20.10;42.60;;;;;;4741514;55;21480;-33
2022/01/09 18:24:37;;;;;;;122.75;100.35;;;20.10;42.50;;;;;;4738953;55;22043;-34
2022/01/09 18:29:38;;;;;;;126.97;104.07;;;20.10;42.60;;;;;;4755250;55;21523;-35
2022/01/09 18:34:39;;;;;;;123.07;98.97;;;20.10;42.50;;;;;;4747654;55;21055;-35
2022/01/09 18:39:40;;;;;;;125.38;100.55;;;20.10;42.50;;;;;;4762365;55;21073;-37
2022/01/09 18:44:44;;;;;;;123.93;101.95;;;20.10;42.50;;;;;;4753570;55;21037;-37
2022/01/09 18:49:47;;;;;;;125.93;101.10;;;20.10;42.50;;;;;;4788164;55;21022;-36
2022/01/09 18:54:48;;;;;;;126.68;102.53;;;20.10;42.50;;;;;;4773614;55;21523;-34
2022/01/09 18:59:49;;;;;;;124.38;101.70;;;20.10;42.50;;;;;;4738327;59;21062;-34
2022/01/09 19:04:49;;;;;;;122.00;99.72;;;20.10;42.50;;;;;;4737759;59;21057;-34
2022/01/09 19:09:51;;;;;;;122.45;96.72;;;20.10;42.50;;;;;;4776208;55;21050;-30
2022/01/09 19:14:53;;;;;;;118.62;94.68;;;20.10;42.50;;;;;;4760617;55;21575;-33
2022/01/09 19:19:54;;;;;;;119.40;95.85;;;20.10;42.50;;;;;;4759529;55;21022;-26
2022/01/09 19:24:55;;;;;;;119.32;94.62;;;20.10;42.50;;;;;;4760424;55;21002;-32
2022/01/09 19:29:55;;;;;;;124.00;100.57;;;20.10;42.50;;;;;;4755164;55;21015;-28
2022/01/09 19:34:56;;;;;;;126.95;101.87;;;20.10;42.50;;;;;;4784512;55;21101;-34
2022/01/09 19:39:58;;;;;;;130.82;103.87;;;20.10;42.50;;;;;;4755046;55;21117;-34
2022/01/09 19:44:58;;;;;;;131.40;106.03;;;20.10;42.40;;;;;;4738287;59;20982;-32
2022/01/09 19:49:59;;;;;;;129.38;104.30;;;20.10;42.40;;;;;;4786757;55;21512;-32
2022/01/09 19:55:05;;;;;;;125.47;102.30;;;20.10;42.40;;;;;;4793197;55;20974;-34
2022/01/09 20:00:09;;;;;;;133.02;104.82;;;20.10;42.30;;;;;;4754457;55;21030;-41
2022/01/09 20:05:11;;;;;;;133.25;106.45;;;20.10;42.30;;;;;;4765904;55;22217;-33
2022/01/09 20:10:12;;;;;;;133.37;104.97;;;20.10;42.40;;;;;;4742334;55;21032;-33
2022/01/09 20:15:13;;;;;;;133.70;109.18;;;20.10;42.30;;;;;;4805264;55;20994;-36
2022/01/09 20:20:22;;;;;;;127.80;103.53;;;20.10;42.30;;;;;;4749144;55;21009;-36
2022/01/09 20:25:23;;;;;;;137.52;108.68;;;20.10;42.40;;;;;;4756173;55;20997;-33
2022/01/09 20:30:24;;;;;;;128.32;104.15;;;20.10;42.30;;;;;;4766592;55;21009;-29
2022/01/09 20:35:25;;;;;;;135.37;108.53;;;20.10;42.30;;;;;;4762260;55;21033;-33
2022/01/09 20:40:26;;;;;;;135.45;110.12;;;20.10;42.30;;;;;;4755789;55;21018;-34
2022/01/09 20:45:27;;;;;;;134.80;110.07;;;20.00;42.20;;;;;;4738409;59;20986;-36
2022/01/09 20:50:28;;;;;;;137.55;109.70;;;20.00;42.20;;;;;;4762134;55;21018;-35
2022/01/09 20:55:29;;;;;;;139.77;108.40;;;20.00;42.20;;;;;;4738429;59;22091;-36
2022/01/09 21:00:31;;;;;;;130.93;105.80;;;20.00;42.20;;;;;;4747203;55;21014;-36
2022/01/09 21:05:32;;;;;;;138.02;110.88;;;20.10;42.20;;;;;;4741267;55;21026;-31
2022/01/09 21:10:35;;;;;;;139.35;108.20;;;20.00;42.30;;;;;;4754251;55;21524;-33
2022/01/09 21:15:36;;;;;;;137.77;105.47;;;20.00;42.20;;;;;;4759352;55;21002;-34
2022/01/09 21:20:39;;;;;;;132.37;106.85;;;20.00;42.10;;;;;;4741669;55;21046;-37
2022/01/09 21:25:39;;;;;;;137.73;110.18;;;20.00;42.10;;;;;;4747925;55;21045;-37
2022/01/09 21:30:43;;;;;;;135.12;108.80;;;20.00;42.10;;;;;;4754186;55;21543;-35
2022/01/09 21:35:44;;;;;;;139.25;110.85;;;20.00;42.10;;;;;;4764468;55;21531;-35
2022/01/09 21:40:46;;;;;;;139.27;109.55;;;20.10;42.10;;;;;;4795676;55;21017;-37
2022/01/09 21:45:47;;;;;;;137.27;108.03;;;20.00;42.10;;;;;;4804819;55;21097;-36
2022/01/09 21:50:48;;;;;;;131.30;107.63;;;20.00;42.00;;;;;;4778564;55;21552;-36
2022/01/09 21:55:48;;;;;;;134.82;110.37;;;20.00;42.00;;;;;;4752944;55;21145;-27
2022/01/09 22:00:49;;;;;;;134.30;106.53;;;20.00;42.10;;;;;;4786947;55;21014;-36
2022/01/09 22:05:51;;;;;;;139.25;111.60;;;20.00;42.70;;;;;;4778895;55;21487;-35
2022/01/09 22:10:53;;;;;;;136.10;107.68;;;20.00;42.00;;;;;;4743067;55;21086;-33
2022/01/09 22:15:56;;;;;;;139.80;110.60;;;20.00;41.90;;;;;;4773433;55;21062;-36
2022/01/09 22:20:57;;;;;;;131.10;105.95;;;20.00;41.90;;;;;;4775266;55;21488;-39
2022/01/09 22:26:00;;;;;;;130.18;107.32;;;20.00;41.90;;;;;;4749760;55;21006;-35
2022/01/09 22:31:01;;;;;;;132.77;107.28;;;20.00;41.90;;;;;;4737134;59;21547;-35
2022/01/09 22:36:02;;;;;;;130.48;106.65;;;20.00;42.00;;;;;;4770446;55;21018;-33
2022/01/09 22:41:03;;;;;;;133.35;106.25;;;20.00;41.90;;;;;;4761653;55;21525;-35
2022/01/09 22:46:04;;;;;;;127.97;99.15;;;20.00;41.90;;;;;;4747104;55;21081;-34
2022/01/09 22:51:05;;;;;;;130.43;104.87;;;20.00;41.90;;;;;;4744345;55;21604;-35
2022/01/09 22:56:06;;;;;;;124.57;97.03;;;20.00;42.00;;;;;;4738227;59;21488;-37
2022/01/09 23:01:07;;;;;;;128.90;103.78;;;20.00;41.90;;;;;;4737739;59;21046;-35
2022/01/09 23:06:08;;;;;;;123.20;97.00;;;20.00;41.90;;;;;;4796704;55;21117;-37
2022/01/09 23:11:10;;;;;;;129.60;103.07;;;20.00;41.90;;;;;;4736594;59;21615;-35
2022/01/09 23:16:11;;;;;;;126.03;99.65;;;20.00;41.90;;;;;;4753871;55;21473;-35
2022/01/09 23:21:12;;;;;;;128.57;103.55;;;20.00;41.90;;;;;;4745762;55;21078;-31
2022/01/09 23:26:13;;;;;;;127.45;101.80;;;20.00;41.20;;;;;;4746126;55;21085;-36
2022/01/09 23:31:17;;;;;;;127.35;102.12;;;20.00;41.80;;;;;;4737911;59;21006;-32
2022/01/09 23:36:18;;;;;;;124.40;100.38;;;20.00;41.70;;;;;;4758212;55;21050;-37
2022/01/09 23:41:18;;;;;;;127.22;100.97;;;20.00;41.80;;;;;;4807244;55;21034;-33
2022/01/09 23:46:20;;;;;;;127.75;100.47;;;20.00;41.80;;;;;;4744005;55;21081;-36
2022/01/09 23:51:21;;;;;;;125.85;99.97;;;20.00;41.70;;;;;;4761563;55;21606;-35
2022/01/09 23:56:22;;;;;;;127.20;99.55;;;20.00;41.70;;;;;;4737483;59;20994;-35
